Etusivu
METAR-TAF:

METAR-TAF

Lentoasemat :

Windom Municipal Airport

Windom, Minnesota, Yhdysvallat

Leveyspiiri: 43-54-48N, Pituuspiiri: 095-06-34W, korkeus merenpinnasta: 430 m

Tämänhetkinen sää

Tämä raportti tehtiin 1 tunti ja 0 minuuttia sitten, kello 09.55 UTC
Tuuli 24 kn pohjoisen/luoteesta puuskistuen 32 kn:hen
Lämpötila 2°C
Kosteus 100%
Ilmanpaine 1005 hPa
Näkyvyys: 16.1 km
Pilvistä 400 ft:n korkeudessa
heikkoa sadetta

METAR: KMWM 210955Z AUTO 33024G32KT 10SM -RA OVC004 02/02 A2968 RMK AO2 P0003 P0003

Aika: 04:55 (10:55 UTC)


TAF: puuttuu

Säähavainnot ja -ennusteet yli 4000 lentoasemalta (METAR- ja TAF-raportit).

Käytössä olevat sääasemat on merkitty karttaan keltaisilla ja punaisilla pisteillä.

Aseta hiiri pisteen päälle nähdäksesi sääaseman nimen.

Klikkaa sitten nähdäksesi säähavainnot ja -ennusteet.

Kartan vaihtaminen: klikkaa mustalla rastilla varustettuja vihreitä pisteitä, niin voit zoomata sisään; viivalla varustettua vihreää pistettä, niin voit zoomata ulos tai vihreitä nuolia, niin pääset viereisille kartoille.


METAR-TAF: